Accueil
METAR-TAF:

METAR-TAF

Aéroports :

Aéroport de Pérouse-Sant'Egidio

Pérouse, Italie

latitude: 43-05N, longitude: 012-30E, altitude: 208 m

Observation

Le bulletin a été fait il y a 26 minutes, à 22:50 UTC
Vent 1 kt de direction variable
Température 4°C
Humidité 100%
Pression 1004 hPa
Nuages fragmentés à une hauteur de 800 ft

METAR: LIRZ 032250Z AUTO VRB01KT //// // BKN008 04/04 Q1004

Heure: 00:16 (23:16 UTC)

Prévision

Le bulletin a été fait il y a 6 heures et 16 minutes, à 17:00 UTC
Prévision valable du 03 à 18 UTC au 04 à 18 UTC
Vent 5 kt de direction variable
Visibilité 10 km ou plus
Nuages épars à une hauteur de 3000 ft

TAF: LIRZ 031700Z 0318/0418 VRB05KT 9999 SCT030

Observations et prévisions météorologiques de plus de 4000 aéroports (messages METAR et TAF).

Les stations disponibles sont représentées par des disques jaunes et rouges sur la carte.

Passer la souris dessus pour voir le nom de la station.

Cliquer dessus pour voir les observations et prévisions météorologiques.

Pour changer de carte: cliquez sur les boutons verts avec une croix noire pour zoomer, sur le bouton vert avec un tiret pour effectuer un zoom arrière, ou sur les flèches vertes pour les cartes adjacentes.


METAR-TAF: